createdAt,value
2016-10-16T00:01:18.632Z,1019.86
2016-10-16T00:06:18.583Z,1019.97
2016-10-16T00:11:18.530Z,1019.95
2016-10-16T00:16:18.478Z,1020.02
2016-10-16T00:21:18.428Z,1019.99
2016-10-16T00:26:18.376Z,1020.04
2016-10-16T00:31:18.325Z,1020.06
2016-10-16T00:36:18.275Z,1020.16
2016-10-16T00:41:18.223Z,1020.19
2016-10-16T00:46:18.171Z,1020.2
2016-10-16T00:51:18.118Z,1020.22
2016-10-16T00:56:18.066Z,1020.29
2016-10-16T01:01:18.016Z,1020.29
2016-10-16T01:06:17.962Z,1020.37
2016-10-16T01:11:17.910Z,1020.36
2016-10-16T01:16:17.858Z,1020.35
2016-10-16T01:21:17.806Z,1020.36
2016-10-16T01:26:17.757Z,1020.35
2016-10-16T01:31:17.706Z,1020.35
2016-10-16T01:36:17.649Z,1020.27
2016-10-16T01:41:17.594Z,1020.24
2016-10-16T01:46:17.542Z,1020.26
2016-10-16T01:51:17.499Z,1020.22
2016-10-16T01:56:17.443Z,1020.24
2016-10-16T02:01:17.384Z,1020.23
2016-10-16T02:06:17.330Z,1020.29
2016-10-16T02:11:17.277Z,1020.22
2016-10-16T02:16:17.223Z,1020.27
2016-10-16T02:21:17.172Z,1020.19
2016-10-16T02:26:17.117Z,1020.19
2016-10-16T02:31:17.065Z,1020.11
2016-10-16T02:36:17.014Z,1020.23
2016-10-16T02:41:16.960Z,1020.25
2016-10-16T02:46:16.908Z,1020.31
2016-10-16T02:51:16.856Z,1020.23
2016-10-16T02:56:16.803Z,1020.23
2016-10-16T03:01:16.749Z,1020.3
2016-10-16T03:06:16.697Z,1020.28
2016-10-16T03:11:16.643Z,1020.3
2016-10-16T03:16:16.592Z,1020.39
2016-10-16T03:21:16.538Z,1020.41
2016-10-16T03:26:16.491Z,1020.39
2016-10-16T03:31:16.433Z,1020.52
2016-10-16T03:36:16.380Z,1020.55
2016-10-16T03:41:16.326Z,1020.6
2016-10-16T03:46:16.276Z,1020.57
2016-10-16T03:51:16.220Z,1020.6
2016-10-16T03:56:16.164Z,1020.6
2016-10-16T04:01:16.112Z,1020.59
2016-10-16T04:06:16.061Z,1020.67
2016-10-16T04:11:16.010Z,1020.62
2016-10-16T04:16:15.951Z,1020.61
2016-10-16T04:21:15.897Z,1020.68
2016-10-16T04:26:15.843Z,1020.74
2016-10-16T04:31:15.789Z,1020.8
2016-10-16T04:36:15.734Z,1020.79
2016-10-16T04:41:15.688Z,1020.82
2016-10-16T04:46:15.624Z,1020.85
2016-10-16T04:51:15.570Z,1020.94
2016-10-16T04:56:15.515Z,1021.05
2016-10-16T05:01:15.463Z,1021.02
2016-10-16T05:06:15.407Z,1021.08
2016-10-16T05:11:15.351Z,1021.05
2016-10-16T05:16:15.297Z,1021.06
2016-10-16T05:21:15.243Z,1021.12
2016-10-16T05:26:15.189Z,1021.07
2016-10-16T05:31:15.135Z,1021.04
2016-10-16T05:36:15.079Z,1021.09
2016-10-16T05:41:15.024Z,1021.12
2016-10-16T05:46:14.969Z,1021.17
2016-10-16T05:51:14.912Z,1021.27
2016-10-16T05:56:14.856Z,1021.23
2016-10-16T06:01:14.799Z,1021.29
2016-10-16T06:06:14.745Z,1021.25
2016-10-16T06:11:14.689Z,1021.16
2016-10-16T06:16:14.633Z,1021.16
2016-10-16T06:21:14.577Z,1021.3
2016-10-16T06:26:14.521Z,1021.25
2016-10-16T06:31:14.467Z,1021.28
2016-10-16T06:36:14.411Z,1021.33
2016-10-16T06:41:14.359Z,1021.45
2016-10-16T06:46:14.299Z,1021.53
2016-10-16T06:51:14.243Z,1021.57
2016-10-16T06:56:14.190Z,1021.53
2016-10-16T07:01:14.135Z,1021.56
2016-10-16T07:06:14.083Z,1021.63
2016-10-16T07:11:14.027Z,1021.65
2016-10-16T07:16:13.973Z,1021.61
2016-10-16T07:21:13.919Z,1021.58
2016-10-16T07:26:13.865Z,1021.56
2016-10-16T07:31:13.815Z,1021.56
2016-10-16T07:36:13.762Z,1021.56
2016-10-16T07:41:13.717Z,1021.62
2016-10-16T07:46:13.652Z,1021.7
2016-10-16T07:51:13.601Z,1021.73
2016-10-16T07:56:13.547Z,1021.74
2016-10-16T08:01:13.495Z,1021.79
2016-10-16T08:06:13.443Z,1021.76
2016-10-16T08:11:13.392Z,1021.78
2016-10-16T08:16:13.340Z,1021.81
2016-10-16T08:21:13.286Z,1021.81
2016-10-16T08:26:13.234Z,1021.82
2016-10-16T08:31:13.182Z,1021.77
2016-10-16T08:36:13.131Z,1021.74
2016-10-16T08:41:13.080Z,1021.7
2016-10-16T08:46:13.030Z,1021.72
2016-10-16T08:51:12.979Z,1021.73
2016-10-16T08:56:12.927Z,1021.84
2016-10-16T09:01:12.878Z,1021.9
2016-10-16T09:06:12.828Z,1021.91
2016-10-16T09:11:12.780Z,1021.87
2016-10-16T09:16:12.730Z,1021.9
2016-10-16T09:21:12.682Z,1021.8
2016-10-16T09:26:12.634Z,1021.78
2016-10-16T09:31:12.584Z,1021.93
2016-10-16T09:36:12.536Z,1021.88
2016-10-16T09:41:12.488Z,1021.88
2016-10-16T09:46:12.447Z,1021.83
2016-10-16T09:51:12.390Z,1021.78
2016-10-16T09:56:12.342Z,1021.85
2016-10-16T10:01:12.299Z,1021.79
2016-10-16T10:06:12.252Z,1021.67
2016-10-16T10:11:12.191Z,1021.68
2016-10-16T10:16:12.138Z,1021.67
2016-10-16T10:21:12.090Z,1021.65
2016-10-16T10:26:12.037Z,1021.58
2016-10-16T10:31:11.987Z,1021.57
2016-10-16T10:36:11.935Z,1021.54
2016-10-16T10:41:11.886Z,1021.51
2016-10-16T10:46:11.844Z,1021.55
2016-10-16T10:51:11.789Z,1021.56
2016-10-16T10:56:11.738Z,1021.56
2016-10-16T11:01:11.692Z,1021.58
2016-10-16T11:06:11.644Z,1021.59
2016-10-16T11:11:11.597Z,1021.51
2016-10-16T11:16:11.549Z,1021.44
2016-10-16T11:21:11.507Z,1021.33
2016-10-16T11:26:11.458Z,1021.35
2016-10-16T11:31:11.411Z,1021.32
2016-10-16T11:36:11.367Z,1021.28
2016-10-16T11:41:11.317Z,1021.25
2016-10-16T11:46:11.269Z,1021.2
2016-10-16T11:51:11.219Z,1021.17
2016-10-16T11:56:11.182Z,1021.16
2016-10-16T12:01:11.122Z,1021.15
2016-10-16T12:06:11.077Z,1021.1
2016-10-16T12:11:11.022Z,1021.15
2016-10-16T12:16:10.975Z,1021.08
2016-10-16T12:21:10.935Z,1021
2016-10-16T12:26:10.880Z,1020.95
2016-10-16T12:31:10.825Z,1020.91
2016-10-16T12:36:10.778Z,1020.91
2016-10-16T12:41:10.727Z,1020.87
2016-10-16T12:46:10.677Z,1020.94
2016-10-16T12:51:10.626Z,1020.81
2016-10-16T12:56:10.581Z,1020.86
2016-10-16T13:01:10.529Z,1020.84
2016-10-16T13:06:10.479Z,1020.84
2016-10-16T13:11:10.426Z,1020.88
2016-10-16T13:16:10.375Z,1020.91
2016-10-16T13:21:10.321Z,1020.88
2016-10-16T13:26:10.268Z,1020.89
2016-10-16T13:31:10.217Z,1020.95
2016-10-16T13:36:10.164Z,1020.96
2016-10-16T13:41:10.115Z,1020.97
2016-10-16T13:46:10.065Z,1020.95
2016-10-16T13:51:10.013Z,1020.92
2016-10-16T13:56:09.961Z,1020.91
2016-10-16T14:01:09.915Z,1020.89
2016-10-16T14:06:09.863Z,1020.75
2016-10-16T14:11:09.820Z,1020.72
2016-10-16T14:16:09.765Z,1020.71
2016-10-16T14:21:09.713Z,1020.73
2016-10-16T14:26:09.672Z,1020.76
2016-10-16T14:31:09.610Z,1020.77
2016-10-16T14:36:09.558Z,1020.83
2016-10-16T14:41:09.507Z,1020.78
2016-10-16T14:46:09.457Z,1020.77
2016-10-16T14:51:09.406Z,1020.82
2016-10-16T14:56:09.356Z,1020.79
2016-10-16T15:01:09.310Z,1020.77
2016-10-16T15:06:09.398Z,1020.81
2016-10-16T15:11:09.217Z,1020.81
2016-10-16T15:16:09.155Z,1020.83
2016-10-16T15:21:09.120Z,1020.87
2016-10-16T15:26:09.061Z,1020.84
2016-10-16T15:31:09.004Z,1020.9
2016-10-16T15:36:08.954Z,1020.86
2016-10-16T15:41:08.912Z,1020.85
2016-10-16T15:46:08.868Z,1020.89
2016-10-16T15:51:08.823Z,1020.92
2016-10-16T15:56:08.780Z,1020.92
2016-10-16T16:01:08.738Z,1020.9
2016-10-16T16:06:08.692Z,1020.88
2016-10-16T16:11:08.645Z,1020.85
2016-10-16T16:16:08.600Z,1020.87
2016-10-16T16:21:08.557Z,1020.84
2016-10-16T16:26:08.512Z,1020.83
2016-10-16T16:31:08.467Z,1020.85
2016-10-16T16:36:08.421Z,1020.86
2016-10-16T16:41:08.375Z,1020.85
2016-10-16T16:46:08.331Z,1020.9
2016-10-16T16:51:08.285Z,1020.91
2016-10-16T16:56:08.239Z,1020.91
2016-10-16T17:01:08.193Z,1020.97
2016-10-16T17:06:08.151Z,1021.03
2016-10-16T17:11:08.104Z,1021.01
2016-10-16T17:16:08.060Z,1021.02
2016-10-16T17:21:08.016Z,1021.09
2016-10-16T17:26:07.968Z,1021.1
2016-10-16T17:31:07.922Z,1021.09
2016-10-16T17:36:07.878Z,1021.13
2016-10-16T17:41:07.828Z,1021.17
2016-10-16T17:46:07.784Z,1021.15
2016-10-16T17:51:07.736Z,1021.17
2016-10-16T17:56:07.702Z,1021.18
2016-10-16T18:01:07.651Z,1021.13
2016-10-16T18:06:07.600Z,1021.07
2016-10-16T18:11:07.555Z,1021.07
2016-10-16T18:16:07.512Z,1021.07
2016-10-16T18:21:07.466Z,1021.04
2016-10-16T18:26:07.428Z,1021.02
2016-10-16T18:31:07.377Z,1021.03
2016-10-16T18:36:07.330Z,1021.05
2016-10-16T18:41:07.285Z,1021.1
2016-10-16T18:46:07.244Z,1021.09
2016-10-16T18:51:07.197Z,1021.1
2016-10-16T18:56:07.149Z,1021.15
2016-10-16T19:01:07.103Z,1021.11
2016-10-16T19:06:07.059Z,1021.11
2016-10-16T19:11:07.014Z,1021.2
2016-10-16T19:16:06.966Z,1021.18
2016-10-16T19:21:06.930Z,1021.16
2016-10-16T19:26:06.874Z,1021.13
2016-10-16T19:31:06.828Z,1021.15
2016-10-16T19:36:06.780Z,1021.09
2016-10-16T19:41:06.750Z,1021.1
2016-10-16T19:46:06.709Z,1021.15
2016-10-16T19:51:06.643Z,1021.16
2016-10-16T19:56:06.595Z,1021.14
2016-10-16T20:01:06.549Z,1021.14
2016-10-16T20:06:06.501Z,1021.17
2016-10-16T20:11:06.463Z,1021.24
2016-10-16T20:16:06.414Z,1021.21
2016-10-16T20:21:06.364Z,1021.19
2016-10-16T20:26:06.319Z,1021.2
2016-10-16T20:31:06.268Z,1021.18
2016-10-16T20:36:06.220Z,1021.17
2016-10-16T20:41:06.174Z,1021.19
2016-10-16T20:46:06.126Z,1021.25
2016-10-16T20:51:06.079Z,1021.23
2016-10-16T20:56:06.037Z,1021.24
2016-10-16T21:01:05.987Z,1021.24
2016-10-16T21:06:05.940Z,1021.15
2016-10-16T21:11:05.891Z,1021.16
2016-10-16T21:16:05.847Z,1021.15
2016-10-16T21:21:05.798Z,1021.17
2016-10-16T21:26:05.754Z,1021.15
2016-10-16T21:31:05.705Z,1021.15
2016-10-16T21:36:05.661Z,1021.16
2016-10-16T21:41:05.616Z,1021.1
2016-10-16T21:46:05.577Z,1021.01
2016-10-16T21:51:05.520Z,1021.01
2016-10-16T21:56:05.474Z,1021.02
2016-10-16T22:01:05.427Z,1021.02
2016-10-16T22:06:05.380Z,1020.99
2016-10-16T22:11:05.329Z,1020.95
2016-10-16T22:16:05.283Z,1020.99
2016-10-16T22:21:05.236Z,1021.02
2016-10-16T22:26:05.190Z,1020.99
2016-10-16T22:31:05.141Z,1021
2016-10-16T22:36:05.098Z,1021.02
2016-10-16T22:41:05.043Z,1020.96
2016-10-16T22:46:04.996Z,1020.94
2016-10-16T22:51:04.949Z,1020.9
2016-10-16T22:56:04.900Z,1020.87
2016-10-16T23:01:04.850Z,1020.86
2016-10-16T23:06:04.803Z,1020.84
2016-10-16T23:11:04.757Z,1020.86
2016-10-16T23:16:04.704Z,1020.89
2016-10-16T23:21:04.656Z,1020.97
2016-10-16T23:26:04.605Z,1021
2016-10-16T23:31:04.553Z,1021.03
2016-10-16T23:36:04.505Z,1021.08
2016-10-16T23:41:04.455Z,1021.08
2016-10-16T23:46:04.405Z,1021.04
2016-10-16T23:51:04.356Z,1020.98
2016-10-16T23:56:04.303Z,1020.97
